sensor_id;sensor_type;location;lat;lon;timestamp;temperature;humidity
47805;DHT22;33568;45.286;9.900;2022-08-25T00:02:00;29.60;61.60
47805;DHT22;33568;45.286;9.900;2022-08-25T00:04:27;29.50;61.80
47805;DHT22;33568;45.286;9.900;2022-08-25T00:06:55;29.50;62.00
47805;DHT22;33568;45.286;9.900;2022-08-25T00:09:25;29.40;62.30
47805;DHT22;33568;45.286;9.900;2022-08-25T00:11:53;29.30;62.30
47805;DHT22;33568;45.286;9.900;2022-08-25T00:14:24;29.30;62.50
47805;DHT22;33568;45.286;9.900;2022-08-25T00:16:51;29.30;62.80
47805;DHT22;33568;45.286;9.900;2022-08-25T00:19:23;29.30;62.80
47805;DHT22;33568;45.286;9.900;2022-08-25T00:21:50;29.30;62.90
47805;DHT22;33568;45.286;9.900;2022-08-25T00:24:19;29.30;62.70
47805;DHT22;33568;45.286;9.900;2022-08-25T00:26:50;29.30;62.70
47805;DHT22;33568;45.286;9.900;2022-08-25T00:29:22;29.20;62.60
47805;DHT22;33568;45.286;9.900;2022-08-25T00:31:48;29.20;62.70
47805;DHT22;33568;45.286;9.900;2022-08-25T00:34:19;29.20;62.70
47805;DHT22;33568;45.286;9.900;2022-08-25T00:36:49;29.10;62.90
47805;DHT22;33568;45.286;9.900;2022-08-25T00:39:18;29.10;63.20
47805;DHT22;33568;45.286;9.900;2022-08-25T00:41:46;29.10;63.10
47805;DHT22;33568;45.286;9.900;2022-08-25T00:44:14;29.10;62.90
47805;DHT22;33568;45.286;9.900;2022-08-25T00:46:53;29.00;63.00
47805;DHT22;33568;45.286;9.900;2022-08-25T00:49:34;28.90;63.30
47805;DHT22;33568;45.286;9.900;2022-08-25T00:52:12;28.90;63.60
47805;DHT22;33568;45.286;9.900;2022-08-25T00:54:45;28.80;63.80
47805;DHT22;33568;45.286;9.900;2022-08-25T00:57:15;28.80;64.00
47805;DHT22;33568;45.286;9.900;2022-08-25T00:59:44;28.90;64.10
47805;DHT22;33568;45.286;9.900;2022-08-25T01:02:11;28.80;64.10
47805;DHT22;33568;45.286;9.900;2022-08-25T01:04:42;28.90;64.10
47805;DHT22;33568;45.286;9.900;2022-08-25T01:07:10;28.90;64.10
47805;DHT22;33568;45.286;9.900;2022-08-25T01:09:37;29.00;64.00
47805;DHT22;33568;45.286;9.900;2022-08-25T01:12:03;29.00;63.80
47805;DHT22;33568;45.286;9.900;2022-08-25T01:14:33;29.00;63.70
47805;DHT22;33568;45.286;9.900;2022-08-25T01:17:00;29.00;63.70
47805;DHT22;33568;45.286;9.900;2022-08-25T01:19:27;29.00;63.80
47805;DHT22;33568;45.286;9.900;2022-08-25T01:21:55;29.00;63.80
47805;DHT22;33568;45.286;9.900;2022-08-25T01:24:28;29.00;63.70
47805;DHT22;33568;45.286;9.900;2022-08-25T01:26:57;29.00;63.70
47805;DHT22;33568;45.286;9.900;2022-08-25T01:29:24;29.00;63.70
47805;DHT22;33568;45.286;9.900;2022-08-25T01:32:00;29.00;63.70
47805;DHT22;33568;45.286;9.900;2022-08-25T01:34:29;29.00;63.60
47805;DHT22;33568;45.286;9.900;2022-08-25T01:36:57;28.90;63.60
47805;DHT22;33568;45.286;9.900;2022-08-25T01:39:27;28.90;63.70
47805;DHT22;33568;45.286;9.900;2022-08-25T01:44:42;28.80;63.80
47805;DHT22;33568;45.286;9.900;2022-08-25T01:47:10;28.70;63.40
47805;DHT22;33568;45.286;9.900;2022-08-25T01:49:37;28.60;63.60
47805;DHT22;33568;45.286;9.900;2022-08-25T01:52:23;28.60;64.00
47805;DHT22;33568;45.286;9.900;2022-08-25T01:54:50;28.50;64.40
47805;DHT22;33568;45.286;9.900;2022-08-25T01:57:17;28.50;64.70
47805;DHT22;33568;45.286;9.900;2022-08-25T01:59:43;28.50;64.80
47805;DHT22;33568;45.286;9.900;2022-08-25T02:02:10;28.50;64.60
47805;DHT22;33568;45.286;9.900;2022-08-25T02:04:37;28.50;64.60
47805;DHT22;33568;45.286;9.900;2022-08-25T02:07:06;28.50;64.50
47805;DHT22;33568;45.286;9.900;2022-08-25T02:09:34;28.50;64.50
47805;DHT22;33568;45.286;9.900;2022-08-25T02:12:01;28.50;64.70
47805;DHT22;33568;45.286;9.900;2022-08-25T02:14:27;28.50;64.90
47805;DHT22;33568;45.286;9.900;2022-08-25T02:16:54;28.50;65.00
47805;DHT22;33568;45.286;9.900;2022-08-25T02:19:22;28.50;64.80
47805;DHT22;33568;45.286;9.900;2022-08-25T02:21:50;28.40;64.70
47805;DHT22;33568;45.286;9.900;2022-08-25T02:24:17;28.40;64.70
47805;DHT22;33568;45.286;9.900;2022-08-25T02:26:43;28.40;64.70
47805;DHT22;33568;45.286;9.900;2022-08-25T02:29:10;28.30;64.70
47805;DHT22;33568;45.286;9.900;2022-08-25T02:31:37;28.30;64.90
47805;DHT22;33568;45.286;9.900;2022-08-25T02:34:05;28.30;65.00
47805;DHT22;33568;45.286;9.900;2022-08-25T02:36:32;28.30;64.90
47805;DHT22;33568;45.286;9.900;2022-08-25T02:38:59;28.30;65.00
47805;DHT22;33568;45.286;9.900;2022-08-25T02:41:26;28.30;65.10
47805;DHT22;33568;45.286;9.900;2022-08-25T02:43:53;28.20;65.20
47805;DHT22;33568;45.286;9.900;2022-08-25T02:46:21;28.20;65.30
47805;DHT22;33568;45.286;9.900;2022-08-25T02:48:48;28.20;65.30
47805;DHT22;33568;45.286;9.900;2022-08-25T02:51:16;28.20;65.30
47805;DHT22;33568;45.286;9.900;2022-08-25T02:53:43;28.20;65.30
47805;DHT22;33568;45.286;9.900;2022-08-25T02:56:16;28.20;65.30
47805;DHT22;33568;45.286;9.900;2022-08-25T02:58:43;28.10;65.30
47805;DHT22;33568;45.286;9.900;2022-08-25T03:01:11;28.10;65.10
47805;DHT22;33568;45.286;9.900;2022-08-25T03:03:38;28.20;65.10
47805;DHT22;33568;45.286;9.900;2022-08-25T03:06:13;28.10;65.10
47805;DHT22;33568;45.286;9.900;2022-08-25T03:08:40;28.00;65.30
47805;DHT22;33568;45.286;9.900;2022-08-25T03:11:07;28.10;65.40
47805;DHT22;33568;45.286;9.900;2022-08-25T03:13:34;28.00;65.50
47805;DHT22;33568;45.286;9.900;2022-08-25T03:16:02;28.00;65.60
47805;DHT22;33568;45.286;9.900;2022-08-25T03:18:30;28.00;65.50
47805;DHT22;33568;45.286;9.900;2022-08-25T03:20:57;28.00;65.60
47805;DHT22;33568;45.286;9.900;2022-08-25T03:23:25;27.90;65.50
47805;DHT22;33568;45.286;9.900;2022-08-25T03:25:55;27.90;65.70
47805;DHT22;33568;45.286;9.900;2022-08-25T03:28:41;27.90;65.80
47805;DHT22;33568;45.286;9.900;2022-08-25T03:31:08;27.90;65.90
47805;DHT22;33568;45.286;9.900;2022-08-25T03:33:35;27.80;65.90
47805;DHT22;33568;45.286;9.900;2022-08-25T03:36:02;27.80;66.00
47805;DHT22;33568;45.286;9.900;2022-08-25T03:38:28;27.80;66.00
47805;DHT22;33568;45.286;9.900;2022-08-25T03:40:55;27.70;66.10
47805;DHT22;33568;45.286;9.900;2022-08-25T03:43:22;27.70;66.10
47805;DHT22;33568;45.286;9.900;2022-08-25T03:45:48;27.80;66.00
47805;DHT22;33568;45.286;9.900;2022-08-25T03:48:16;27.80;65.50
47805;DHT22;33568;45.286;9.900;2022-08-25T03:50:48;27.90;65.70
47805;DHT22;33568;45.286;9.900;2022-08-25T03:53:15;27.90;64.90
47805;DHT22;33568;45.286;9.900;2022-08-25T03:55:41;28.00;64.90
47805;DHT22;33568;45.286;9.900;2022-08-25T03:58:07;27.90;64.70
47805;DHT22;33568;45.286;9.900;2022-08-25T04:00:34;28.00;64.50
47805;DHT22;33568;45.286;9.900;2022-08-25T04:03:01;28.00;64.50
47805;DHT22;33568;45.286;9.900;2022-08-25T04:05:28;28.00;64.50
47805;DHT22;33568;45.286;9.900;2022-08-25T04:07:54;27.90;64.70
47805;DHT22;33568;45.286;9.900;2022-08-25T04:10:21;27.90;64.50
47805;DHT22;33568;45.286;9.900;2022-08-25T04:12:47;27.90;64.60
47805;DHT22;33568;45.286;9.900;2022-08-25T04:15:14;27.80;64.80
47805;DHT22;33568;45.286;9.900;2022-08-25T04:17:41;27.70;65.00
47805;DHT22;33568;45.286;9.900;2022-08-25T04:20:09;27.70;65.20
47805;DHT22;33568;45.286;9.900;2022-08-25T04:22:36;27.70;65.20
47805;DHT22;33568;45.286;9.900;2022-08-25T04:25:05;27.70;65.10
47805;DHT22;33568;45.286;9.900;2022-08-25T04:27:35;27.70;65.20
47805;DHT22;33568;45.286;9.900;2022-08-25T04:30:04;27.70;65.30
47805;DHT22;33568;45.286;9.900;2022-08-25T04:32:33;27.60;65.30
47805;DHT22;33568;45.286;9.900;2022-08-25T04:35:00;27.60;65.40
47805;DHT22;33568;45.286;9.900;2022-08-25T04:37:27;27.60;65.30
47805;DHT22;33568;45.286;9.900;2022-08-25T04:39:53;27.50;65.40
47805;DHT22;33568;45.286;9.900;2022-08-25T04:42:20;27.50;65.50
47805;DHT22;33568;45.286;9.900;2022-08-25T04:44:46;27.50;65.70
47805;DHT22;33568;45.286;9.900;2022-08-25T04:47:15;27.50;65.80
47805;DHT22;33568;45.286;9.900;2022-08-25T04:49:41;27.40;65.90
47805;DHT22;33568;45.286;9.900;2022-08-25T04:52:08;27.40;66.20
47805;DHT22;33568;45.286;9.900;2022-08-25T04:54:34;27.30;66.20
47805;DHT22;33568;45.286;9.900;2022-08-25T04:57:02;27.40;66.20
47805;DHT22;33568;45.286;9.900;2022-08-25T04:59:28;27.40;66.10
47805;DHT22;33568;45.286;9.900;2022-08-25T05:01:57;27.40;66.10
47805;DHT22;33568;45.286;9.900;2022-08-25T05:04:24;27.30;66.30
47805;DHT22;33568;45.286;9.900;2022-08-25T05:06:51;27.20;66.50
47805;DHT22;33568;45.286;9.900;2022-08-25T05:09:17;27.20;66.60
47805;DHT22;33568;45.286;9.900;2022-08-25T05:11:44;27.10;66.70
47805;DHT22;33568;45.286;9.900;2022-08-25T05:14:10;27.10;66.80
47805;DHT22;33568;45.286;9.900;2022-08-25T05:16:40;27.20;67.00
47805;DHT22;33568;45.286;9.900;2022-08-25T05:19:07;27.20;67.00
47805;DHT22;33568;45.286;9.900;2022-08-25T05:21:33;27.30;67.10
47805;DHT22;33568;45.286;9.900;2022-08-25T05:24:00;27.30;66.80
47805;DHT22;33568;45.286;9.900;2022-08-25T05:26:29;27.40;66.70
47805;DHT22;33568;45.286;9.900;2022-08-25T05:28:59;27.50;66.70
47805;DHT22;33568;45.286;9.900;2022-08-25T05:31:26;27.60;66.50
47805;DHT22;33568;45.286;9.900;2022-08-25T05:33:54;27.60;66.40
47805;DHT22;33568;45.286;9.900;2022-08-25T05:36:21;27.70;66.50
47805;DHT22;33568;45.286;9.900;2022-08-25T05:38:48;27.70;66.40
47805;DHT22;33568;45.286;9.900;2022-08-25T05:41:21;27.70;66.30
47805;DHT22;33568;45.286;9.900;2022-08-25T05:43:51;27.70;66.40
47805;DHT22;33568;45.286;9.900;2022-08-25T05:46:18;27.80;66.30
47805;DHT22;33568;45.286;9.900;2022-08-25T05:48:47;27.80;66.30
47805;DHT22;33568;45.286;9.900;2022-08-25T05:51:14;27.80;66.30
47805;DHT22;33568;45.286;9.900;2022-08-25T05:53:44;27.80;66.40
47805;DHT22;33568;45.286;9.900;2022-08-25T05:56:13;27.80;66.40
47805;DHT22;33568;45.286;9.900;2022-08-25T05:58:40;27.90;66.40
47805;DHT22;33568;45.286;9.900;2022-08-25T06:01:07;27.90;66.20
47805;DHT22;33568;45.286;9.900;2022-08-25T06:03:52;27.90;66.20
47805;DHT22;33568;45.286;9.900;2022-08-25T06:06:20;27.90;66.00
47805;DHT22;33568;45.286;9.900;2022-08-25T06:08:47;28.00;66.10
47805;DHT22;33568;45.286;9.900;2022-08-25T06:11:15;28.00;66.10
47805;DHT22;33568;45.286;9.900;2022-08-25T06:13:42;28.00;66.20
47805;DHT22;33568;45.286;9.900;2022-08-25T06:16:09;28.10;66.20
47805;DHT22;33568;45.286;9.900;2022-08-25T06:18:36;28.20;65.90
47805;DHT22;33568;45.286;9.900;2022-08-25T06:21:09;28.20;65.70
47805;DHT22;33568;45.286;9.900;2022-08-25T06:23:38;28.30;65.70
47805;DHT22;33568;45.286;9.900;2022-08-25T06:26:04;28.30;65.60
47805;DHT22;33568;45.286;9.900;2022-08-25T06:28:31;28.30;65.70
47805;DHT22;33568;45.286;9.900;2022-08-25T06:30:58;28.30;65.80
47805;DHT22;33568;45.286;9.900;2022-08-25T06:33:25;28.30;65.80
47805;DHT22;33568;45.286;9.900;2022-08-25T06:35:55;28.20;65.70
47805;DHT22;33568;45.286;9.900;2022-08-25T06:38:23;28.10;65.80
47805;DHT22;33568;45.286;9.900;2022-08-25T06:40:49;28.10;66.00
47805;DHT22;33568;45.286;9.900;2022-08-25T06:43:19;28.20;66.10
47805;DHT22;33568;45.286;9.900;2022-08-25T06:45:45;28.20;65.90
47805;DHT22;33568;45.286;9.900;2022-08-25T06:48:13;28.30;65.80
47805;DHT22;33568;45.286;9.900;2022-08-25T06:50:39;28.40;65.80
47805;DHT22;33568;45.286;9.900;2022-08-25T06:53:06;28.50;65.60
47805;DHT22;33568;45.286;9.900;2022-08-25T06:55:33;28.50;65.50
47805;DHT22;33568;45.286;9.900;2022-08-25T06:58:00;28.60;65.40
47805;DHT22;33568;45.286;9.900;2022-08-25T07:00:28;28.60;65.10
47805;DHT22;33568;45.286;9.900;2022-08-25T07:02:55;28.70;65.20
47805;DHT22;33568;45.286;9.900;2022-08-25T07:05:21;28.70;65.00
47805;DHT22;33568;45.286;9.900;2022-08-25T07:07:48;28.80;64.90
47805;DHT22;33568;45.286;9.900;2022-08-25T07:10:15;28.90;64.70
47805;DHT22;33568;45.286;9.900;2022-08-25T07:12:42;29.00;64.50
47805;DHT22;33568;45.286;9.900;2022-08-25T07:15:10;29.10;64.40
47805;DHT22;33568;45.286;9.900;2022-08-25T07:17:36;29.20;64.20
47805;DHT22;33568;45.286;9.900;2022-08-25T07:20:03;29.30;64.00
47805;DHT22;33568;45.286;9.900;2022-08-25T07:22:29;29.30;64.10
47805;DHT22;33568;45.286;9.900;2022-08-25T07:24:57;29.20;64.20
47805;DHT22;33568;45.286;9.900;2022-08-25T07:27:23;29.10;65.10
47805;DHT22;33568;45.286;9.900;2022-08-25T07:29:51;29.20;64.50
47805;DHT22;33568;45.286;9.900;2022-08-25T07:32:19;29.20;64.20
47805;DHT22;33568;45.286;9.900;2022-08-25T07:34:45;29.20;64.10
47805;DHT22;33568;45.286;9.900;2022-08-25T07:37:30;29.20;64.10
47805;DHT22;33568;45.286;9.900;2022-08-25T07:39:56;29.40;64.00
47805;DHT22;33568;45.286;9.900;2022-08-25T07:42:24;29.50;64.30
47805;DHT22;33568;45.286;9.900;2022-08-25T07:44:53;29.50;63.30
47805;DHT22;33568;45.286;9.900;2022-08-25T07:47:19;29.60;63.30
47805;DHT22;33568;45.286;9.900;2022-08-25T07:49:46;29.60;63.10
47805;DHT22;33568;45.286;9.900;2022-08-25T07:52:14;29.70;62.70
47805;DHT22;33568;45.286;9.900;2022-08-25T07:54:41;29.60;62.70
47805;DHT22;33568;45.286;9.900;2022-08-25T07:57:08;29.70;62.80
47805;DHT22;33568;45.286;9.900;2022-08-25T07:59:39;29.80;62.50
47805;DHT22;33568;45.286;9.900;2022-08-25T08:02:11;29.90;62.20
47805;DHT22;33568;45.286;9.900;2022-08-25T08:04:39;30.00;61.90
47805;DHT22;33568;45.286;9.900;2022-08-25T08:07:07;30.10;61.70
47805;DHT22;33568;45.286;9.900;2022-08-25T08:09:33;30.30;61.30
47805;DHT22;33568;45.286;9.900;2022-08-25T08:12:03;30.30;61.00
47805;DHT22;33568;45.286;9.900;2022-08-25T08:14:34;30.40;60.80
47805;DHT22;33568;45.286;9.900;2022-08-25T08:17:06;30.60;60.60
47805;DHT22;33568;45.286;9.900;2022-08-25T08:19:34;30.70;59.90
47805;DHT22;33568;45.286;9.900;2022-08-25T08:22:02;30.70;60.00
47805;DHT22;33568;45.286;9.900;2022-08-25T08:24:30;30.70;59.80
47805;DHT22;33568;45.286;9.900;2022-08-25T08:26:57;30.80;59.90
47805;DHT22;33568;45.286;9.900;2022-08-25T08:29:24;30.80;60.00
47805;DHT22;33568;45.286;9.900;2022-08-25T08:31:50;30.90;59.90
47805;DHT22;33568;45.286;9.900;2022-08-25T08:34:16;31.10;59.60
47805;DHT22;33568;45.286;9.900;2022-08-25T08:36:43;31.20;59.10
47805;DHT22;33568;45.286;9.900;2022-08-25T08:39:09;31.40;58.90
47805;DHT22;33568;45.286;9.900;2022-08-25T08:47:40;31.20;58.20
47805;DHT22;33568;45.286;9.900;2022-08-25T08:50:25;31.20;57.80
47805;DHT22;33568;45.286;9.900;2022-08-25T09:00:47;32.00;56.80
47805;DHT22;33568;45.286;9.900;2022-08-25T09:05:49;32.30;55.60
47805;DHT22;33568;45.286;9.900;2022-08-25T09:08:17;32.40;55.50
47805;DHT22;33568;45.286;9.900;2022-08-25T09:10:59;32.50;55.30
47805;DHT22;33568;45.286;9.900;2022-08-25T09:16:19;32.30;55.60
47805;DHT22;33568;45.286;9.900;2022-08-25T09:27:30;32.90;54.60
47805;DHT22;33568;45.286;9.900;2022-08-25T09:29:59;33.10;54.50
47805;DHT22;33568;45.286;9.900;2022-08-25T09:32:31;33.10;53.60
47805;DHT22;33568;45.286;9.900;2022-08-25T09:35:00;33.30;54.10
47805;DHT22;33568;45.286;9.900;2022-08-25T09:37:27;33.30;53.80
47805;DHT22;33568;45.286;9.900;2022-08-25T09:39:54;33.50;53.40
47805;DHT22;33568;45.286;9.900;2022-08-25T09:42:20;33.60;53.20
47805;DHT22;33568;45.286;9.900;2022-08-25T09:44:47;33.70;52.80
47805;DHT22;33568;45.286;9.900;2022-08-25T09:50:03;33.80;52.20
47805;DHT22;33568;45.286;9.900;2022-08-25T09:52:34;33.90;51.80
47805;DHT22;33568;45.286;9.900;2022-08-25T10:00:21;34.00;51.50
47805;DHT22;33568;45.286;9.900;2022-08-25T10:03:06;33.90;51.20
47805;DHT22;33568;45.286;9.900;2022-08-25T10:08:40;33.80;51.90
47805;DHT22;33568;45.286;9.900;2022-08-25T10:11:44;34.00;51.10
47805;DHT22;33568;45.286;9.900;2022-08-25T10:16:53;34.40;50.90
47805;DHT22;33568;45.286;9.900;2022-08-25T10:19:36;34.50;50.50
47805;DHT22;33568;45.286;9.900;2022-08-25T10:22:07;34.50;50.50
47805;DHT22;33568;45.286;9.900;2022-08-25T10:24:36;34.50;49.80
47805;DHT22;33568;45.286;9.900;2022-08-25T10:33:01;34.50;49.70
47805;DHT22;33568;45.286;9.900;2022-08-25T10:35:46;34.80;49.80
47805;DHT22;33568;45.286;9.900;2022-08-25T10:40:55;35.00;48.80
47805;DHT22;33568;45.286;9.900;2022-08-25T10:48:50;35.10;48.30
47805;DHT22;33568;45.286;9.900;2022-08-25T10:54:41;35.30;48.20
47805;DHT22;33568;45.286;9.900;2022-08-25T10:57:33;35.60;47.60
47805;DHT22;33568;45.286;9.900;2022-08-25T11:06:06;35.80;46.70
47805;DHT22;33568;45.286;9.900;2022-08-25T11:08:54;35.90;46.50
47805;DHT22;33568;45.286;9.900;2022-08-25T11:13:54;35.80;47.20
47805;DHT22;33568;45.286;9.900;2022-08-25T11:19:07;35.90;46.60
47805;DHT22;33568;45.286;9.900;2022-08-25T11:26:56;36.00;46.50
47805;DHT22;33568;45.286;9.900;2022-08-25T11:29:27;35.90;46.30
47805;DHT22;33568;45.286;9.900;2022-08-25T11:31:58;35.90;46.50
47805;DHT22;33568;45.286;9.900;2022-08-25T11:34:29;35.90;46.90
47805;DHT22;33568;45.286;9.900;2022-08-25T11:37:18;35.90;47.10
47805;DHT22;33568;45.286;9.900;2022-08-25T11:40:01;36.10;46.90
47805;DHT22;33568;45.286;9.900;2022-08-25T11:43:00;36.20;46.60
47805;DHT22;33568;45.286;9.900;2022-08-25T11:48:17;36.10;46.60
47805;DHT22;33568;45.286;9.900;2022-08-25T11:51:02;36.20;47.00
47805;DHT22;33568;45.286;9.900;2022-08-25T11:53:36;36.30;46.60
47805;DHT22;33568;45.286;9.900;2022-08-25T11:56:08;36.40;46.50
47805;DHT22;33568;45.286;9.900;2022-08-25T11:58:50;36.50;46.40
47805;DHT22;33568;45.286;9.900;2022-08-25T12:09:33;36.50;46.00
47805;DHT22;33568;45.286;9.900;2022-08-25T12:14:54;36.70;46.20
47805;DHT22;33568;45.286;9.900;2022-08-25T12:17:23;36.90;46.40
47805;DHT22;33568;45.286;9.900;2022-08-25T12:19:57;36.90;46.20
47805;DHT22;33568;45.286;9.900;2022-08-25T12:24:55;36.90;46.10
47805;DHT22;33568;45.286;9.900;2022-08-25T12:27:50;36.80;45.30
47805;DHT22;33568;45.286;9.900;2022-08-25T12:30:49;36.60;45.80
47805;DHT22;33568;45.286;9.900;2022-08-25T12:33:42;36.70;46.00
47805;DHT22;33568;45.286;9.900;2022-08-25T12:36:26;36.90;46.40
47805;DHT22;33568;45.286;9.900;2022-08-25T12:39:08;36.90;45.20
47805;DHT22;33568;45.286;9.900;2022-08-25T12:41:55;36.50;45.50
47805;DHT22;33568;45.286;9.900;2022-08-25T12:44:35;36.30;45.30
47805;DHT22;33568;45.286;9.900;2022-08-25T12:49:33;36.40;46.40
47805;DHT22;33568;45.286;9.900;2022-08-25T12:52:16;36.60;46.40
47805;DHT22;33568;45.286;9.900;2022-08-25T12:54:57;36.70;46.10
47805;DHT22;33568;45.286;9.900;2022-08-25T12:57:44;36.90;45.90
47805;DHT22;33568;45.286;9.900;2022-08-25T13:14:29;36.80;45.10
47805;DHT22;33568;45.286;9.900;2022-08-25T13:16:59;36.60;45.30
47805;DHT22;33568;45.286;9.900;2022-08-25T13:19:27;35.90;45.80
47805;DHT22;33568;45.286;9.900;2022-08-25T13:21:57;35.50;46.20
47805;DHT22;33568;45.286;9.900;2022-08-25T13:24:27;35.60;46.30
47805;DHT22;33568;45.286;9.900;2022-08-25T13:26:58;35.50;46.20
47805;DHT22;33568;45.286;9.900;2022-08-25T13:29:33;35.60;46.00
47805;DHT22;33568;45.286;9.900;2022-08-25T13:32:00;35.60;45.90
47805;DHT22;33568;45.286;9.900;2022-08-25T13:34:33;35.50;45.40
47805;DHT22;33568;45.286;9.900;2022-08-25T13:37:09;35.30;45.60
47805;DHT22;33568;45.286;9.900;2022-08-25T13:40:07;35.30;45.80
47805;DHT22;33568;45.286;9.900;2022-08-25T13:42:35;35.60;45.60
47805;DHT22;33568;45.286;9.900;2022-08-25T13:45:04;35.50;45.80
47805;DHT22;33568;45.286;9.900;2022-08-25T13:55:37;35.20;44.70
47805;DHT22;33568;45.286;9.900;2022-08-25T13:58:05;35.40;45.20
47805;DHT22;33568;45.286;9.900;2022-08-25T14:00:47;35.40;45.40
47805;DHT22;33568;45.286;9.900;2022-08-25T14:03:33;35.40;45.10
47805;DHT22;33568;45.286;9.900;2022-08-25T14:08:34;35.40;45.20
47805;DHT22;33568;45.286;9.900;2022-08-25T14:13:35;35.30;44.90
47805;DHT22;33568;45.286;9.900;2022-08-25T14:16:18;35.30;45.40
47805;DHT22;33568;45.286;9.900;2022-08-25T14:18:50;35.20;45.40
47805;DHT22;33568;45.286;9.900;2022-08-25T14:21:19;35.30;45.50
47805;DHT22;33568;45.286;9.900;2022-08-25T14:23:46;35.40;45.40
47805;DHT22;33568;45.286;9.900;2022-08-25T14:26:13;35.40;45.20
47805;DHT22;33568;45.286;9.900;2022-08-25T14:28:41;35.30;45.30
47805;DHT22;33568;45.286;9.900;2022-08-25T14:31:13;35.40;45.20
47805;DHT22;33568;45.286;9.900;2022-08-25T14:34:13;35.60;44.90
47805;DHT22;33568;45.286;9.900;2022-08-25T14:36:37;35.50;44.70
47805;DHT22;33568;45.286;9.900;2022-08-25T14:39:03;35.70;44.80
47805;DHT22;33568;45.286;9.900;2022-08-25T14:41:33;35.80;44.70
47805;DHT22;33568;45.286;9.900;2022-08-25T14:44:03;35.80;44.60
47805;DHT22;33568;45.286;9.900;2022-08-25T14:46:36;35.70;44.60
47805;DHT22;33568;45.286;9.900;2022-08-25T14:49:07;35.60;44.50
47805;DHT22;33568;45.286;9.900;2022-08-25T14:51:38;35.50;44.40
47805;DHT22;33568;45.286;9.900;2022-08-25T14:54:09;35.50;44.40
47805;DHT22;33568;45.286;9.900;2022-08-25T14:56:36;35.70;44.50
47805;DHT22;33568;45.286;9.900;2022-08-25T14:59:03;35.80;44.60
47805;DHT22;33568;45.286;9.900;2022-08-25T15:01:29;35.80;44.60
47805;DHT22;33568;45.286;9.900;2022-08-25T15:04:34;35.80;44.40
47805;DHT22;33568;45.286;9.900;2022-08-25T15:07:01;35.80;44.20
47805;DHT22;33568;45.286;9.900;2022-08-25T15:09:48;35.90;44.30
47805;DHT22;33568;45.286;9.900;2022-08-25T15:12:14;35.90;43.90
47805;DHT22;33568;45.286;9.900;2022-08-25T15:14:42;36.00;44.30
47805;DHT22;33568;45.286;9.900;2022-08-25T15:17:09;35.90;44.20
47805;DHT22;33568;45.286;9.900;2022-08-25T15:19:35;35.90;44.30
47805;DHT22;33568;45.286;9.900;2022-08-25T15:22:03;35.70;44.30
47805;DHT22;33568;45.286;9.900;2022-08-25T15:24:30;35.60;44.30
47805;DHT22;33568;45.286;9.900;2022-08-25T15:26:59;35.60;44.10
47805;DHT22;33568;45.286;9.900;2022-08-25T15:29:29;35.60;44.00
47805;DHT22;33568;45.286;9.900;2022-08-25T15:31:59;35.70;43.90
47805;DHT22;33568;45.286;9.900;2022-08-25T15:34:27;35.60;43.70
47805;DHT22;33568;45.286;9.900;2022-08-25T15:36:53;35.80;43.80
47805;DHT22;33568;45.286;9.900;2022-08-25T15:39:21;35.90;44.10
47805;DHT22;33568;45.286;9.900;2022-08-25T15:41:47;35.80;44.20
47805;DHT22;33568;45.286;9.900;2022-08-25T15:44:14;35.80;44.20
47805;DHT22;33568;45.286;9.900;2022-08-25T15:46:40;35.80;43.90
47805;DHT22;33568;45.286;9.900;2022-08-25T15:49:07;36.00;44.20
47805;DHT22;33568;45.286;9.900;2022-08-25T15:51:34;36.00;44.40
47805;DHT22;33568;45.286;9.900;2022-08-25T15:54:01;35.90;44.80
47805;DHT22;33568;45.286;9.900;2022-08-25T15:56:27;35.90;44.90
47805;DHT22;33568;45.286;9.900;2022-08-25T15:58:53;36.10;45.10
47805;DHT22;33568;45.286;9.900;2022-08-25T16:01:23;36.10;45.40
47805;DHT22;33568;45.286;9.900;2022-08-25T16:03:50;36.10;45.50
47805;DHT22;33568;45.286;9.900;2022-08-25T16:06:16;36.10;45.50
47805;DHT22;33568;45.286;9.900;2022-08-25T16:08:43;36.10;45.50
47805;DHT22;33568;45.286;9.900;2022-08-25T16:11:22;36.00;45.50
47805;DHT22;33568;45.286;9.900;2022-08-25T16:13:50;36.00;45.80
47805;DHT22;33568;45.286;9.900;2022-08-25T16:16:18;35.90;45.70
47805;DHT22;33568;45.286;9.900;2022-08-25T16:18:46;35.90;45.80
47805;DHT22;33568;45.286;9.900;2022-08-25T16:21:16;35.80;45.70
47805;DHT22;33568;45.286;9.900;2022-08-25T16:23:45;35.80;46.10
47805;DHT22;33568;45.286;9.900;2022-08-25T16:26:12;35.90;46.50
47805;DHT22;33568;45.286;9.900;2022-08-25T16:28:39;35.90;46.10
47805;DHT22;33568;45.286;9.900;2022-08-25T16:31:09;35.90;46.40
47805;DHT22;33568;45.286;9.900;2022-08-25T16:33:35;35.90;46.70
47805;DHT22;33568;45.286;9.900;2022-08-25T16:36:20;35.90;46.40
47805;DHT22;33568;45.286;9.900;2022-08-25T16:38:47;35.90;46.60
47805;DHT22;33568;45.286;9.900;2022-08-25T16:41:20;35.90;46.60
47805;DHT22;33568;45.286;9.900;2022-08-25T16:43:48;35.80;46.60
47805;DHT22;33568;45.286;9.900;2022-08-25T16:46:17;35.80;47.10
47805;DHT22;33568;45.286;9.900;2022-08-25T16:48:43;35.80;47.50
47805;DHT22;33568;45.286;9.900;2022-08-25T16:51:18;35.80;47.40
47805;DHT22;33568;45.286;9.900;2022-08-25T16:53:45;35.70;47.40
47805;DHT22;33568;45.286;9.900;2022-08-25T16:56:33;35.70;47.60
47805;DHT22;33568;45.286;9.900;2022-08-25T16:59:02;35.60;47.80
47805;DHT22;33568;45.286;9.900;2022-08-25T17:01:30;35.50;48.10
47805;DHT22;33568;45.286;9.900;2022-08-25T17:03:59;35.50;48.40
47805;DHT22;33568;45.286;9.900;2022-08-25T17:06:27;35.50;48.60
47805;DHT22;33568;45.286;9.900;2022-08-25T17:08:54;35.40;48.60
47805;DHT22;33568;45.286;9.900;2022-08-25T17:11:23;35.40;48.80
47805;DHT22;33568;45.286;9.900;2022-08-25T17:13:54;35.30;49.00
47805;DHT22;33568;45.286;9.900;2022-08-25T17:16:22;35.30;48.90
47805;DHT22;33568;45.286;9.900;2022-08-25T17:18:53;35.20;49.10
47805;DHT22;33568;45.286;9.900;2022-08-25T17:21:21;35.20;49.40
47805;DHT22;33568;45.286;9.900;2022-08-25T17:23:48;35.20;49.50
47805;DHT22;33568;45.286;9.900;2022-08-25T17:26:15;35.10;49.50
47805;DHT22;33568;45.286;9.900;2022-08-25T17:28:42;35.00;49.60
47805;DHT22;33568;45.286;9.900;2022-08-25T17:31:10;35.00;49.80
47805;DHT22;33568;45.286;9.900;2022-08-25T17:33:38;34.90;50.10
47805;DHT22;33568;45.286;9.900;2022-08-25T17:36:05;34.80;50.20
47805;DHT22;33568;45.286;9.900;2022-08-25T17:38:33;34.80;50.40
47805;DHT22;33568;45.286;9.900;2022-08-25T17:41:02;34.80;50.50
47805;DHT22;33568;45.286;9.900;2022-08-25T17:43:29;34.70;50.60
47805;DHT22;33568;45.286;9.900;2022-08-25T17:45:56;34.70;50.80
47805;DHT22;33568;45.286;9.900;2022-08-25T17:48:24;34.60;50.90
47805;DHT22;33568;45.286;9.900;2022-08-25T17:50:52;34.60;51.10
47805;DHT22;33568;45.286;9.900;2022-08-25T17:53:19;34.40;51.20